Time;durP1;ratioP1;P1;durP2;ratioP2;P2;SDS_P1;SDS_P2;PMS_P1;PMS_P2;Temp;Humidity;BMP_temperature;BMP_pressure;BME280_temperature;BME280_humidity;BME280_pressure;Samples;Min_cycle;Max_cycle;Signal;HPM_P1;HPM_P2
2022/09/27 00:02:14;;;;;;;4.90;2.78;;;9.80;99.70;;;;;;5007205;28;20120;-73
2022/09/27 00:04:40;;;;;;;5.30;2.85;;;9.80;99.70;;;;;;5012074;28;20036;-70
2022/09/27 00:07:06;;;;;;;4.57;2.60;;;9.70;99.70;;;;;;5013465;28;20044;-70
2022/09/27 00:09:32;;;;;;;4.82;2.80;;;9.80;99.70;;;;;;5010398;28;20132;-70
2022/09/27 00:11:57;;;;;;;4.60;2.63;;;9.80;99.80;;;;;;5017379;28;20041;-71
2022/09/27 00:14:23;;;;;;;3.65;2.47;;;9.80;99.80;;;;;;5013365;28;20394;-70
2022/09/27 00:16:48;;;;;;;3.88;2.40;;;9.80;99.80;;;;;;5011413;28;20119;-70
2022/09/27 00:19:16;;;;;;;5.03;2.88;;;9.80;99.80;;;;;;5010751;28;20017;-71
2022/09/27 00:21:43;;;;;;;5.13;2.95;;;9.80;99.80;;;;;;5012445;28;20042;-70
2022/09/27 00:24:14;;;;;;;3.72;2.58;;;9.80;99.80;;;;;;5008529;28;20411;-71
2022/09/27 00:26:40;;;;;;;4.63;2.63;;;9.80;99.80;;;;;;5007188;28;20149;-74
2022/09/27 00:29:05;;;;;;;5.07;2.67;;;9.80;99.80;;;;;;5015352;28;20508;-73
2022/09/27 00:31:31;;;;;;;4.32;2.80;;;9.80;99.80;;;;;;5013393;28;20050;-73
2022/09/27 00:33:59;;;;;;;5.70;2.50;;;9.80;99.80;;;;;;5008340;28;20029;-73
2022/09/27 00:36:27;;;;;;;4.63;3.05;;;9.80;99.90;;;;;;5022811;28;20116;-74
2022/09/27 00:38:53;;;;;;;5.00;3.00;;;9.70;99.80;;;;;;5008499;28;20026;-73
2022/09/27 00:41:31;;;;;;;4.55;2.58;;;9.80;99.90;;;;;;5011296;28;20038;-73
2022/09/27 00:44:02;;;;;;;4.35;2.72;;;9.80;99.90;;;;;;5011824;28;20113;-73
2022/09/27 00:46:43;;;;;;;3.55;2.70;;;9.80;99.80;;;;;;5004721;28;20041;-73
2022/09/27 00:49:22;;;;;;;6.45;2.53;;;9.70;99.90;;;;;;5002563;28;20049;-73
2022/09/27 00:51:56;;;;;;;8.98;2.80;;;9.70;99.90;;;;;;5013487;28;20033;-73
2022/09/27 00:54:25;;;;;;;3.95;2.70;;;9.70;99.90;;;;;;5007776;28;20030;-73
2022/09/27 00:56:52;;;;;;;3.80;2.78;;;9.80;99.90;;;;;;5011045;28;20049;-73
2022/09/27 00:59:34;;;;;;;5.70;2.90;;;9.80;99.90;;;;;;5010186;28;20045;-73
2022/09/27 01:02:03;;;;;;;4.10;2.83;;;9.80;99.90;;;;;;5007667;28;20034;-73
2022/09/27 01:04:31;;;;;;;4.75;2.70;;;9.80;99.90;;;;;;5001420;28;20119;-73
2022/09/27 01:06:56;;;;;;;4.00;2.58;;;9.80;99.90;;;;;;5009997;28;20037;-73
2022/09/27 01:09:23;;;;;;;5.65;3.17;;;9.80;99.90;;;;;;5005833;28;20030;-73
2022/09/27 01:12:18;;;;;;;6.25;3.30;;;9.70;99.90;;;;;;5007964;28;20044;-73
2022/09/27 01:15:12;;;;;;;4.28;2.67;;;9.80;99.90;;;;;;5010082;28;21024;-73
2022/09/27 01:18:02;;;;;;;7.03;3.00;;;9.80;99.90;;;;;;5006406;28;20034;-73
2022/09/27 01:20:45;;;;;;;6.90;2.92;;;9.80;99.90;;;;;;5007456;28;20404;-73
2022/09/27 01:23:35;;;;;;;5.25;3.13;;;9.80;99.90;;;;;;5014687;28;20454;-73
2022/09/27 01:26:28;;;;;;;5.32;3.10;;;9.80;99.90;;;;;;5007607;28;20030;-73
2022/09/27 01:29:10;;;;;;;6.05;3.10;;;9.80;99.90;;;;;;4997354;28;20739;-73
2022/09/27 01:32:04;;;;;;;4.65;3.15;;;9.80;99.90;;;;;;5008613;28;20073;-73
2022/09/27 01:34:37;;;;;;;4.50;3.22;;;9.80;99.90;;;;;;5004698;28;20106;-73
2022/09/27 01:37:21;;;;;;;7.13;3.20;;;9.80;99.90;;;;;;5020129;28;20386;-73
2022/09/27 01:40:09;;;;;;;7.32;3.42;;;9.80;99.90;;;;;;5006237;28;20133;-73
2022/09/27 01:42:57;;;;;;;5.18;3.08;;;9.80;99.90;;;;;;5009046;28;20502;-73
2022/09/27 01:45:37;;;;;;;5.57;3.92;;;9.80;99.90;;;;;;5005738;28;20034;-73
2022/09/27 01:48:20;;;;;;;4.82;3.00;;;9.80;99.90;;;;;;5002907;28;20088;-73
2022/09/27 01:50:57;;;;;;;5.70;3.60;;;9.80;99.90;;;;;;5004916;28;20117;-73
2022/09/27 01:53:34;;;;;;;5.20;3.30;;;9.80;99.90;;;;;;5019456;28;20038;-73
2022/09/27 01:56:03;;;;;;;6.78;3.90;;;9.80;99.90;;;;;;5005648;28;20113;-73
2022/09/27 01:58:41;;;;;;;5.93;3.70;;;9.80;99.90;;;;;;5008528;28;20037;-73
2022/09/27 02:01:08;;;;;;;5.95;4.18;;;9.80;99.90;;;;;;5007875;28;20049;-73
2022/09/27 02:03:42;;;;;;;6.32;4.18;;;9.80;99.90;;;;;;5008632;28;20418;-73
2022/09/27 02:06:12;;;;;;;6.10;3.95;;;9.80;99.90;;;;;;5010679;28;20120;-76
2022/09/27 02:08:42;;;;;;;6.55;4.28;;;9.80;99.90;;;;;;5001075;28;20102;-73
2022/09/27 02:11:11;;;;;;;6.07;3.83;;;9.80;99.90;;;;;;5005111;28;20425;-70
2022/09/27 02:13:46;;;;;;;8.45;4.30;;;9.80;99.90;;;;;;5007198;28;20133;-73
2022/09/27 02:16:30;;;;;;;6.13;4.18;;;9.80;99.90;;;;;;5002602;28;20443;-72
2022/09/27 02:19:29;;;;;;;10.10;4.70;;;9.80;99.90;;;;;;5001569;28;20129;-73
2022/09/27 02:22:04;;;;;;;6.10;4.18;;;9.80;99.90;;;;;;5004086;28;20022;-73
2022/09/27 02:25:02;;;;;;;6.55;4.28;;;9.80;99.90;;;;;;5002714;28;20038;-73
2022/09/27 02:27:43;;;;;;;6.78;4.38;;;9.80;99.90;;;;;;4975306;28;20128;-73
2022/09/27 02:30:11;;;;;;;6.38;4.53;;;9.80;99.90;;;;;;5004328;28;20125;-73
2022/09/27 02:32:38;;;;;;;7.97;5.03;;;9.80;99.90;;;;;;5008160;28;20089;-73
2022/09/27 02:35:12;;;;;;;6.85;4.15;;;9.80;99.90;;;;;;5007848;28;20464;-73
2022/09/27 02:37:38;;;;;;;8.52;5.20;;;9.90;99.90;;;;;;5005778;28;20034;-74
2022/09/27 02:40:04;;;;;;;8.00;4.60;;;9.80;99.90;;;;;;5003274;28;20442;-73
2022/09/27 02:42:30;;;;;;;7.53;4.90;;;9.80;99.90;;;;;;5000020;28;20054;-73
2022/09/27 02:44:56;;;;;;;6.85;4.47;;;9.80;99.90;;;;;;5003954;28;20117;-72
2022/09/27 02:47:40;;;;;;;7.22;4.95;;;9.80;99.90;;;;;;4998567;28;20124;-72
2022/09/27 02:50:12;;;;;;;7.30;4.60;;;9.80;99.90;;;;;;5007537;28;20476;-73
2022/09/27 02:52:54;;;;;;;8.18;4.63;;;9.80;99.90;;;;;;4999581;28;20117;-73
2022/09/27 02:55:44;;;;;;;6.97;4.07;;;9.80;99.90;;;;;;5009101;28;20034;-73
2022/09/27 02:58:31;;;;;;;6.70;4.60;;;9.80;99.90;;;;;;5005917;28;20477;-73
2022/09/27 03:01:12;;;;;;;8.27;4.78;;;9.80;99.90;;;;;;5005182;28;20033;-73
2022/09/27 03:04:15;;;;;;;9.15;4.82;;;9.80;99.90;;;;;;4987199;28;20476;-74
2022/09/27 03:06:45;;;;;;;7.03;4.43;;;9.80;99.90;;;;;;4944558;28;20483;-73
2022/09/27 03:09:22;;;;;;;6.60;4.68;;;9.80;99.90;;;;;;4993913;28;20415;-73
2022/09/27 03:11:48;;;;;;;6.40;4.20;;;9.90;99.90;;;;;;5004956;28;20606;-73
2022/09/27 03:14:14;;;;;;;6.70;4.43;;;9.80;99.90;;;;;;5006755;28;20124;-73
2022/09/27 03:16:40;;;;;;;6.72;4.55;;;9.90;99.90;;;;;;5009389;28;20486;-73
2022/09/27 03:19:05;;;;;;;7.85;4.53;;;9.90;99.90;;;;;;5005226;28;20141;-74
2022/09/27 03:21:31;;;;;;;7.60;5.15;;;9.80;99.90;;;;;;5004173;28;20320;-73
2022/09/27 03:23:57;;;;;;;8.52;5.72;;;9.90;99.90;;;;;;5001972;28;20561;-73
2022/09/27 03:26:22;;;;;;;11.80;6.15;;;9.90;99.90;;;;;;5002508;28;20381;-73
2022/09/27 03:28:47;;;;;;;11.70;6.63;;;9.90;99.90;;;;;;5007513;28;20037;-73
2022/09/27 03:31:13;;;;;;;10.23;6.40;;;9.90;99.90;;;;;;5007806;28;20034;-73
2022/09/27 03:33:39;;;;;;;10.23;6.15;;;9.90;99.90;;;;;;5002433;28;20058;-73
2022/09/27 03:36:05;;;;;;;9.10;5.40;;;9.80;99.90;;;;;;5016303;28;20121;-73
2022/09/27 03:38:30;;;;;;;9.73;5.82;;;9.80;99.90;;;;;;4996635;28;20135;-73
2022/09/27 03:40:56;;;;;;;8.48;6.00;;;9.90;99.90;;;;;;5006964;28;20128;-74
2022/09/27 03:43:21;;;;;;;9.98;6.35;;;9.80;99.90;;;;;;5008130;28;20061;-73
2022/09/27 03:45:47;;;;;;;10.05;6.45;;;9.90;99.90;;;;;;5004769;28;20045;-73
2022/09/27 03:48:13;;;;;;;10.52;6.45;;;9.80;99.90;;;;;;5006729;28;20061;-73
2022/09/27 03:50:38;;;;;;;9.77;6.50;;;9.90;99.90;;;;;;5001622;28;20413;-73
2022/09/27 03:53:04;;;;;;;11.90;6.97;;;9.80;99.90;;;;;;5004723;28;20087;-73
2022/09/27 03:55:29;;;;;;;11.98;6.35;;;9.90;99.90;;;;;;5006744;28;20045;-73
2022/09/27 03:57:55;;;;;;;10.23;6.97;;;9.90;99.90;;;;;;5004850;28;20112;-73
2022/09/27 04:00:21;;;;;;;10.50;6.95;;;9.90;99.90;;;;;;5016952;28;20095;-73
2022/09/27 04:02:46;;;;;;;10.23;6.80;;;9.90;99.90;;;;;;5005967;28;20092;-74
2022/09/27 04:05:12;;;;;;;11.55;6.85;;;9.90;99.90;;;;;;5000979;28;20141;-73
2022/09/27 04:07:38;;;;;;;11.98;7.00;;;9.80;99.90;;;;;;4999445;28;20025;-73
2022/09/27 04:10:04;;;;;;;13.90;7.65;;;9.90;99.90;;;;;;4994318;28;20509;-73
2022/09/27 04:12:30;;;;;;;14.48;8.40;;;9.90;99.90;;;;;;5006500;28;20060;-73
2022/09/27 04:14:55;;;;;;;15.00;8.43;;;9.90;99.90;;;;;;5006286;28;20038;-73
2022/09/27 04:17:21;;;;;;;14.27;8.63;;;9.90;99.90;;;;;;5001547;28;20485;-74
2022/09/27 04:19:46;;;;;;;15.00;8.55;;;9.90;99.90;;;;;;5004638;28;20140;-73
2022/09/27 04:22:12;;;;;;;20.10;10.07;;;10.00;99.90;;;;;;5005315;28;20527;-73
2022/09/27 04:24:38;;;;;;;20.25;10.02;;;10.00;99.90;;;;;;4988999;28;20118;-73
2022/09/27 04:27:04;;;;;;;17.42;9.73;;;10.00;99.90;;;;;;4994897;28;20014;-73
2022/09/27 04:29:29;;;;;;;18.20;10.75;;;10.00;99.90;;;;;;5007945;28;20144;-71
2022/09/27 04:31:55;;;;;;;23.48;11.20;;;10.00;99.90;;;;;;5008088;28;20381;-73
2022/09/27 04:36:25;;;;;;;25.48;11.55;;;10.00;99.90;;;;;;5006189;28;20034;-72
2022/09/27 04:37:06;;;;;;;22.85;11.10;;;10.00;99.90;;;;;;5007783;28;20026;-72
2022/09/27 04:39:32;;;;;;;24.88;11.68;;;10.00;99.90;;;;;;4999910;28;20034;-72
2022/09/27 04:41:57;;;;;;;31.15;12.73;;;10.00;99.90;;;;;;5000429;28;20042;-72
2022/09/27 04:44:23;;;;;;;28.23;13.32;;;10.00;99.90;;;;;;5009976;28;20434;-72
2022/09/27 04:46:48;;;;;;;29.80;13.38;;;10.00;99.90;;;;;;5005048;28;20034;-71
2022/09/27 04:49:14;;;;;;;26.67;13.07;;;10.10;99.90;;;;;;5010914;28;20332;-73
2022/09/27 04:51:39;;;;;;;33.38;14.55;;;10.10;99.90;;;;;;5000497;28;20046;-71
2022/09/27 04:54:05;;;;;;;28.48;12.98;;;10.00;99.90;;;;;;5004397;28;20453;-70
2022/09/27 04:56:30;;;;;;;27.35;13.55;;;10.10;99.90;;;;;;5002833;28;20054;-72
2022/09/27 04:58:57;;;;;;;31.85;15.13;;;10.00;99.90;;;;;;5004239;28;20328;-71
2022/09/27 05:01:22;;;;;;;27.58;13.60;;;10.10;99.90;;;;;;5008457;28;20033;-71
2022/09/27 05:03:48;;;;;;;30.60;13.40;;;10.10;99.90;;;;;;5010664;28;20041;-70
2022/09/27 05:06:13;;;;;;;32.88;13.57;;;10.00;99.90;;;;;;5013020;28;20117;-72
2022/09/27 05:08:39;;;;;;;30.08;13.60;;;10.10;99.90;;;;;;5024084;28;20073;-72
2022/09/27 05:11:04;;;;;;;29.52;13.10;;;10.10;99.90;;;;;;5006939;28;20168;-74
2022/09/27 05:13:30;;;;;;;35.67;14.43;;;10.10;99.90;;;;;;4999254;28;20378;-72
2022/09/27 05:16:01;;;;;;;30.95;13.90;;;10.10;99.90;;;;;;4997485;28;20073;-69
2022/09/27 05:18:27;;;;;;;32.72;13.68;;;10.10;99.90;;;;;;5001829;28;20084;-70
2022/09/27 05:20:52;;;;;;;30.88;13.35;;;10.10;99.90;;;;;;5006811;28;20094;-69
2022/09/27 05:23:19;;;;;;;28.10;12.65;;;10.10;99.90;;;;;;4996503;28;20038;-71
2022/09/27 05:25:44;;;;;;;33.22;13.77;;;10.10;99.90;;;;;;5000553;28;20026;-69
2022/09/27 05:28:10;;;;;;;30.25;11.48;;;10.10;99.90;;;;;;5006544;28;20033;-69
2022/09/27 05:30:35;;;;;;;23.75;12.07;;;10.10;99.90;;;;;;4997291;28;20109;-69
2022/09/27 05:33:01;;;;;;;22.67;11.02;;;10.10;99.90;;;;;;5011634;28;20064;-70
2022/09/27 05:35:26;;;;;;;23.35;10.18;;;10.10;99.90;;;;;;5006615;28;20059;-71
2022/09/27 05:37:58;;;;;;;21.98;9.50;;;10.10;99.90;;;;;;5002543;28;20045;-73
2022/09/27 05:40:24;;;;;;;18.17;8.60;;;10.00;99.90;;;;;;5007386;28;20095;-69
2022/09/27 05:42:53;;;;;;;22.13;8.25;;;10.00;99.90;;;;;;5002292;28;20343;-71
2022/09/27 05:45:20;;;;;;;15.02;8.48;;;10.00;99.90;;;;;;5002676;28;20390;-69
2022/09/27 05:47:56;;;;;;;16.92;7.63;;;10.00;99.90;;;;;;4998836;28;20140;-73
2022/09/27 05:50:24;;;;;;;17.10;7.18;;;10.00;99.90;;;;;;5003753;28;20042;-70
2022/09/27 05:52:49;;;;;;;18.13;6.82;;;10.00;99.90;;;;;;5000758;28;20047;-75
2022/09/27 05:55:15;;;;;;;14.98;6.75;;;10.00;99.90;;;;;;5008550;28;20076;-70
2022/09/27 05:57:41;;;;;;;11.93;6.50;;;10.00;99.90;;;;;;5009795;28;20462;-70
2022/09/27 06:00:08;;;;;;;14.80;6.22;;;10.00;99.90;;;;;;5011036;28;20029;-70
2022/09/27 06:02:34;;;;;;;11.30;5.80;;;10.00;99.90;;;;;;5010566;28;20032;-71
2022/09/27 06:04:59;;;;;;;16.67;5.80;;;9.90;99.90;;;;;;5004260;28;20076;-71
2022/09/27 06:07:25;;;;;;;12.10;5.25;;;9.90;99.90;;;;;;5013840;28;20057;-69
2022/09/27 06:09:50;;;;;;;12.30;6.10;;;9.90;99.90;;;;;;5006477;28;20065;-70
2022/09/27 06:12:16;;;;;;;11.77;5.25;;;9.80;99.90;;;;;;5010333;28;20037;-69
2022/09/27 06:14:41;;;;;;;10.40;5.25;;;9.90;99.90;;;;;;5004918;28;20291;-72
2022/09/27 06:17:07;;;;;;;7.70;4.05;;;9.90;99.90;;;;;;4993171;28;20386;-72
2022/09/27 06:19:32;;;;;;;11.82;4.82;;;9.90;99.90;;;;;;4993087;28;20060;-72
2022/09/27 06:21:58;;;;;;;9.45;4.25;;;9.90;99.90;;;;;;4994257;28;20112;-70
2022/09/27 06:24:23;;;;;;;11.85;4.10;;;9.90;99.90;;;;;;4995843;28;20496;-69
2022/09/27 06:26:48;;;;;;;8.98;3.88;;;9.90;99.90;;;;;;4995225;28;20034;-69
2022/09/27 06:29:14;;;;;;;10.30;4.50;;;9.90;99.90;;;;;;4997026;28;20099;-72
2022/09/27 06:31:39;;;;;;;8.63;4.80;;;9.80;99.90;;;;;;5000486;28;20416;-70
2022/09/27 06:34:06;;;;;;;9.15;4.28;;;9.90;99.90;;;;;;4995992;28;20057;-70
2022/09/27 06:36:32;;;;;;;9.80;4.65;;;9.90;99.90;;;;;;4992952;28;20057;-72
2022/09/27 06:39:00;;;;;;;10.68;5.18;;;9.80;99.90;;;;;;4997403;28;20460;-73
2022/09/27 06:41:26;;;;;;;7.63;3.90;;;9.90;99.90;;;;;;4997644;28;20448;-70
2022/09/27 06:43:51;;;;;;;9.45;3.72;;;9.90;99.90;;;;;;4995973;28;20108;-69
2022/09/27 06:46:17;;;;;;;6.05;3.22;;;9.90;99.90;;;;;;5006351;28;20116;-69
2022/09/27 06:48:42;;;;;;;7.47;3.58;;;9.80;99.90;;;;;;5009385;28;20426;-69
2022/09/27 06:51:08;;;;;;;8.60;3.58;;;9.80;99.90;;;;;;5012775;28;20029;-69
2022/09/27 06:53:33;;;;;;;6.28;3.10;;;9.80;99.90;;;;;;5006865;28;20396;-69
2022/09/27 06:56:02;;;;;;;5.20;2.58;;;9.80;99.90;;;;;;4997618;28;20057;-69
2022/09/27 07:01:13;;;;;;;7.55;2.60;;;9.80;99.90;;;;;;5002390;28;20061;-69
2022/09/27 07:03:40;;;;;;;6.43;2.60;;;9.80;99.90;;;;;;5006178;28;20109;-69
2022/09/27 07:06:16;;;;;;;6.93;2.40;;;9.80;99.90;;;;;;5005524;28;20088;-71
2022/09/27 07:08:42;;;;;;;4.65;2.03;;;9.80;99.90;;;;;;5009349;28;20458;-70
2022/09/27 07:11:08;;;;;;;7.97;2.42;;;9.80;99.80;;;;;;5007463;28;20080;-69
2022/09/27 07:13:39;;;;;;;4.57;2.22;;;9.80;99.80;;;;;;5011408;28;20133;-69
2022/09/27 07:16:04;;;;;;;7.15;2.63;;;9.80;99.80;;;;;;4992751;28;20026;-70
2022/09/27 07:18:30;;;;;;;7.00;2.47;;;9.90;99.80;;;;;;5003386;28;20060;-70
2022/09/27 07:20:58;;;;;;;7.70;2.20;;;9.90;99.70;;;;;;5004679;28;20404;-69
2022/09/27 07:23:24;;;;;;;3.50;2.00;;;9.90;99.70;;;;;;5009372;28;20098;-69
2022/09/27 07:25:50;;;;;;;7.00;2.33;;;9.90;99.70;;;;;;5007191;28;20022;-70
2022/09/27 07:28:18;;;;;;;4.70;2.53;;;9.90;99.60;;;;;;5007766;28;20030;-69
2022/09/27 07:30:44;;;;;;;9.88;2.97;;;10.00;99.60;;;;;;4997379;28;20450;-70
2022/09/27 07:33:09;;;;;;;6.85;2.38;;;10.00;99.60;;;;;;5007879;28;20120;-69
2022/09/27 07:35:42;;;;;;;5.00;2.40;;;10.10;99.60;;;;;;5006988;28;20068;-70
2022/09/27 07:38:12;;;;;;;6.28;2.85;;;10.10;99.60;;;;;;5006545;28;23060;-71
2022/09/27 07:40:38;;;;;;;7.85;2.67;;;10.10;99.60;;;;;;5007555;28;20052;-70
2022/09/27 07:43:03;;;;;;;5.45;2.78;;;10.10;99.50;;;;;;5008680;28;20113;-70
2022/09/27 07:45:30;;;;;;;5.72;2.28;;;10.10;99.50;;;;;;5005786;28;20117;-72
2022/09/27 07:47:55;;;;;;;4.93;2.30;;;10.10;99.50;;;;;;5000325;28;20153;-70
2022/09/27 07:50:21;;;;;;;5.68;2.25;;;10.10;99.50;;;;;;5008217;28;20384;-69
2022/09/27 07:52:51;;;;;;;4.45;1.90;;;10.00;99.30;;;;;;5008294;28;20534;-69
2022/09/27 07:55:17;;;;;;;3.78;1.70;;;10.10;99.30;;;;;;5004700;28;20076;-71
2022/09/27 07:57:46;;;;;;;3.83;1.83;;;10.10;99.40;;;;;;5023212;28;20060;-69
2022/09/27 08:00:15;;;;;;;4.50;1.63;;;10.10;99.30;;;;;;5005805;28;20026;-73
2022/09/27 08:02:41;;;;;;;4.22;1.58;;;10.10;99.20;;;;;;5015586;28;20406;-70
2022/09/27 08:05:07;;;;;;;3.88;1.90;;;10.10;99.20;;;;;;4995294;28;20042;-71
2022/09/27 08:07:33;;;;;;;2.85;1.60;;;10.10;99.20;;;;;;5006939;28;20087;-70
2022/09/27 08:09:59;;;;;;;6.05;1.80;;;10.20;99.20;;;;;;5005996;28;20429;-71
2022/09/27 08:12:24;;;;;;;3.17;1.75;;;10.10;99.00;;;;;;5006677;28;20057;-70
2022/09/27 08:14:50;;;;;;;4.05;2.00;;;10.20;99.00;;;;;;5009188;28;20443;-70
2022/09/27 08:17:16;;;;;;;4.40;1.60;;;10.30;99.10;;;;;;5011504;28;20022;-71
2022/09/27 08:19:43;;;;;;;3.75;1.85;;;10.30;99.00;;;;;;5025409;28;20107;-71
2022/09/27 08:22:11;;;;;;;5.07;2.20;;;10.40;99.10;;;;;;5002451;28;20042;-69
2022/09/27 08:24:36;;;;;;;4.68;1.77;;;10.50;98.90;;;;;;5009849;28;20188;-71
2022/09/27 08:27:04;;;;;;;4.65;1.88;;;10.50;98.90;;;;;;5011687;28;20141;-70
2022/09/27 08:29:30;;;;;;;6.68;1.80;;;10.50;98.70;;;;;;5010604;28;20034;-72
2022/09/27 08:31:55;;;;;;;4.88;1.75;;;10.60;98.70;;;;;;5009503;28;20053;-70
2022/09/27 08:34:22;;;;;;;2.17;1.55;;;10.60;98.80;;;;;;5011650;28;20038;-71
2022/09/27 08:36:47;;;;;;;2.15;1.30;;;10.60;98.60;;;;;;5011751;28;20099;-70
2022/09/27 08:39:13;;;;;;;2.33;1.10;;;10.60;98.50;;;;;;5019117;28;20026;-70
2022/09/27 08:41:46;;;;;;;2.40;1.33;;;10.60;98.40;;;;;;5005768;28;20411;-70
2022/09/27 08:44:23;;;;;;;4.28;1.20;;;10.60;98.20;;;;;;5007991;28;20030;-72
2022/09/27 08:47:15;;;;;;;2.22;1.17;;;10.60;98.30;;;;;;5009217;28;20057;-70
2022/09/27 08:49:55;;;;;;;1.90;1.10;;;10.70;98.20;;;;;;5018277;28;21905;-70
2022/09/27 08:52:31;;;;;;;1.63;1.02;;;10.80;98.00;;;;;;5016402;28;20059;-70
2022/09/27 08:55:00;;;;;;;2.38;1.20;;;10.80;98.00;;;;;;5003587;28;20038;-70
2022/09/27 08:57:25;;;;;;;3.70;1.75;;;10.90;97.90;;;;;;5005613;28;20068;-70
2022/09/27 09:00:10;;;;;;;2.80;1.60;;;11.00;98.10;;;;;;5012338;28;20362;-71
2022/09/27 09:02:36;;;;;;;3.95;1.80;;;11.10;97.90;;;;;;5007867;28;20038;-70
2022/09/27 09:05:12;;;;;;;4.60;1.60;;;11.10;97.60;;;;;;5006439;28;20038;-70
2022/09/27 09:07:56;;;;;;;2.90;1.60;;;11.00;97.40;;;;;;5006539;28;20406;-71
2022/09/27 09:14:01;;;;;;;3.83;1.40;;;11.20;97.40;;;;;;4999168;28;20382;-71
2022/09/27 09:16:33;;;;;;;5.15;1.67;;;11.20;97.10;;;;;;5008215;28;20109;-70
2022/09/27 09:19:26;;;;;;;4.45;2.00;;;11.30;97.00;;;;;;5009897;28;20355;-70
2022/09/27 09:22:10;;;;;;;2.80;1.67;;;11.30;96.70;;;;;;5021163;28;20037;-71
2022/09/27 09:24:57;;;;;;;2.20;1.02;;;11.40;96.70;;;;;;5010852;28;20025;-71
2022/09/27 09:27:34;;;;;;;3.75;0.95;;;11.40;96.40;;;;;;5007627;28;20435;-71
2022/09/27 09:30:22;;;;;;;1.67;0.90;;;11.40;96.20;;;;;;5002410;28;20037;-71
2022/09/27 09:33:04;;;;;;;4.13;0.82;;;11.50;95.70;;;;;;5004720;28;20439;-71
2022/09/27 09:35:46;;;;;;;1.65;0.98;;;11.50;95.40;;;;;;5006973;28;20026;-72
2022/09/27 09:38:21;;;;;;;2.47;0.70;;;11.60;95.30;;;;;;5007893;28;20355;-73
2022/09/27 09:41:02;;;;;;;2.70;0.88;;;11.60;95.50;;;;;;4996004;28;20072;-71
2022/09/27 09:43:37;;;;;;;1.77;0.95;;;11.50;95.50;;;;;;4994433;28;20509;-71
2022/09/27 09:46:12;;;;;;;1.98;0.90;;;11.50;95.20;;;;;;5004097;28;20104;-72
2022/09/27 09:48:54;;;;;;;2.38;0.80;;;11.50;95.40;;;;;;5009061;28;20026;-72
2022/09/27 09:51:26;;;;;;;1.10;0.70;;;11.60;95.10;;;;;;4999375;28;20108;-72
2022/09/27 09:54:05;;;;;;;1.60;0.90;;;11.80;95.00;;;;;;5010966;28;20365;-72
2022/09/27 09:56:35;;;;;;;1.23;0.70;;;11.90;94.60;;;;;;5018528;28;20042;-72
2022/09/27 09:59:08;;;;;;;2.00;0.50;;;11.70;93.90;;;;;;5010613;28;20473;-72
2022/09/27 10:01:42;;;;;;;1.13;0.77;;;11.90;94.70;;;;;;5010544;28;20061;-73
2022/09/27 10:04:17;;;;;;;2.03;0.60;;;12.00;94.40;;;;;;5002481;28;20025;-71
2022/09/27 10:06:42;;;;;;;0.93;0.60;;;11.90;93.90;;;;;;5009024;28;20518;-71
2022/09/27 10:09:12;;;;;;;1.15;0.50;;;12.00;93.50;;;;;;5022684;28;20303;-71
2022/09/27 10:11:43;;;;;;;0.75;0.60;;;12.00;93.00;;;;;;5007539;28;20070;-73
2022/09/27 10:14:16;;;;;;;0.70;0.55;;;12.00;92.80;;;;;;5008997;28;20033;-72
2022/09/27 10:16:47;;;;;;;1.42;0.43;;;11.90;92.40;;;;;;5010766;28;20116;-72
2022/09/27 10:19:17;;;;;;;6.47;0.70;;;11.80;92.70;;;;;;5008187;28;20442;-72
2022/09/27 10:21:48;;;;;;;1.65;0.40;;;11.90;92.90;;;;;;4994504;28;20034;-72
2022/09/27 10:24:15;;;;;;;0.68;0.55;;;12.00;93.00;;;;;;5007742;28;20037;-72
2022/09/27 10:26:43;;;;;;;1.17;0.50;;;12.10;93.10;;;;;;5004320;28;20062;-71
2022/09/27 10:29:30;;;;;;;0.50;0.40;;;12.00;93.20;;;;;;5007003;28;20092;-72
2022/09/27 10:31:57;;;;;;;1.80;0.63;;;12.00;93.40;;;;;;5008181;28;20096;-72
2022/09/27 10:34:36;;;;;;;1.17;0.50;;;12.10;93.40;;;;;;5009082;28;20084;-72
2022/09/27 10:37:22;;;;;;;1.05;0.50;;;12.00;92.90;;;;;;5007545;28;20426;-72
2022/09/27 10:39:50;;;;;;;1.02;0.40;;;11.90;93.20;;;;;;5005329;28;20068;-73
2022/09/27 10:42:33;;;;;;;0.43;0.43;;;11.80;93.20;;;;;;5003685;28;20469;-72
2022/09/27 10:45:25;;;;;;;2.05;0.47;;;11.90;93.70;;;;;;5011986;28;20128;-73
2022/09/27 10:47:50;;;;;;;2.03;0.93;;;12.10;94.00;;;;;;5016459;28;20327;-72
2022/09/27 10:50:21;;;;;;;2.25;0.90;;;12.40;93.40;;;;;;5009559;28;20044;-71
2022/09/27 10:52:47;;;;;;;;;;;12.50;92.30;;;;;;5009473;28;20361;-72
2022/09/27 10:55:24;;;;;;;1.20;0.65;;;12.40;92.40;;;;;;5004285;28;19906;-72
2022/09/27 10:57:52;;;;;;;3.50;1.02;;;12.30;92.90;;;;;;5019411;28;20477;-72
2022/09/27 11:00:23;;;;;;;2.97;0.70;;;12.10;92.40;;;;;;5009759;28;20113;-72
2022/09/27 11:02:55;;;;;;;1.67;1.05;;;11.90;92.60;;;;;;5009627;28;20128;-72
2022/09/27 11:05:26;;;;;;;1.83;1.20;;;11.50;93.20;;;;;;5009491;28;20038;-74
2022/09/27 11:07:54;;;;;;;3.88;1.27;;;11.40;94.00;;;;;;5003252;28;20940;-72
2022/09/27 11:10:22;;;;;;;3.35;1.58;;;11.30;95.20;;;;;;4996676;28;20154;-72
2022/09/27 11:13:15;;;;;;;2.85;1.52;;;11.20;95.60;;;;;;5003867;28;20029;-72
2022/09/27 11:15:53;;;;;;;3.45;2.25;;;11.20;96.10;;;;;;5006554;28;20061;-72
2022/09/27 11:18:46;;;;;;;2.38;1.50;;;11.10;96.30;;;;;;4998785;28;20030;-70
2022/09/27 11:21:15;;;;;;;2.80;1.10;;;10.80;95.90;;;;;;5009010;28;20030;-73
2022/09/27 11:23:52;;;;;;;2.53;1.27;;;10.80;96.40;;;;;;5008061;28;20056;-73
2022/09/27 11:26:55;;;;;;;1.45;1.05;;;10.80;96.40;;;;;;5004356;28;20034;-71
2022/09/27 11:29:24;;;;;;;3.03;0.98;;;10.90;96.70;;;;;;5001288;28;20375;-71
2022/09/27 11:32:26;;;;;;;3.53;1.60;;;11.00;96.40;;;;;;5011887;28;20124;-71
2022/09/27 11:35:17;;;;;;;2.40;1.42;;;11.00;96.40;;;;;;5006927;28;20091;-72
2022/09/27 11:37:49;;;;;;;2.72;1.83;;;11.00;96.60;;;;;;5008341;28;20056;-72
2022/09/27 11:40:22;;;;;;;3.55;1.70;;;11.00;96.20;;;;;;5007946;28;20056;-72
2022/09/27 11:42:57;;;;;;;4.50;2.28;;;11.00;96.00;;;;;;5007395;28;20451;-72
2022/09/27 11:45:46;;;;;;;5.80;2.30;;;11.00;95.70;;;;;;5008096;28;20513;-72
2022/09/27 11:48:27;;;;;;;2.35;1.75;;;11.10;96.10;;;;;;5004769;28;20197;-73
2022/09/27 11:51:01;;;;;;;2.72;1.75;;;11.20;96.00;;;;;;5008300;28;20436;-72
2022/09/27 11:53:27;;;;;;;3.25;2.08;;;11.30;95.90;;;;;;5018942;28;20100;-72
2022/09/27 11:56:42;;;;;;;7.13;2.10;;;11.30;96.30;;;;;;5005697;28;20129;-72
2022/09/27 11:59:47;;;;;;;4.22;1.83;;;11.40;95.80;;;;;;5000084;28;20046;-72
2022/09/27 12:02:40;;;;;;;2.88;1.73;;;11.20;95.50;;;;;;5007008;28;20125;-74
2022/09/27 12:05:30;;;;;;;3.83;1.77;;;11.10;95.20;;;;;;5003308;28;20037;-71
2022/09/27 12:08:07;;;;;;;2.90;1.70;;;11.10;95.20;;;;;;5007314;28;20404;-72
2022/09/27 12:10:34;;;;;;;5.82;1.80;;;11.20;95.50;;;;;;5007117;28;20053;-72
2022/09/27 12:13:00;;;;;;;2.60;1.65;;;11.30;95.50;;;;;;4995536;28;20074;-72
2022/09/27 12:15:31;;;;;;;2.78;1.58;;;11.30;94.80;;;;;;5021806;28;20026;-73
2022/09/27 12:18:06;;;;;;;;;;;11.30;94.20;;;;;;5001015;28;20172;-71
2022/09/27 12:20:36;;;;;;;2.28;1.25;;;11.50;94.30;;;;;;4998233;28;20382;-73
2022/09/27 12:23:19;;;;;;;1.70;1.35;;;11.30;93.90;;;;;;4999270;28;20350;-73
2022/09/27 12:25:49;;;;;;;2.95;1.33;;;11.20;94.10;;;;;;4996693;28;20030;-72
2022/09/27 12:28:24;;;;;;;2.17;0.88;;;11.20;94.10;;;;;;5001567;28;20045;-73
2022/09/27 12:30:57;;;;;;;2.72;1.10;;;11.10;94.10;;;;;;5000581;28;20144;-72
2022/09/27 12:33:31;;;;;;;1.63;1.30;;;11.20;94.20;;;;;;4997399;28;20039;-72
2022/09/27 12:36:02;;;;;;;5.28;1.70;;;11.30;94.20;;;;;;5001063;28;20110;-72
2022/09/27 12:38:41;;;;;;;2.53;1.73;;;11.30;93.60;;;;;;4999230;28;20413;-72
2022/09/27 12:41:11;;;;;;;3.60;1.85;;;11.40;93.50;;;;;;4996183;28;20065;-72
2022/09/27 12:43:41;;;;;;;4.65;2.30;;;11.50;93.30;;;;;;4999188;28;20057;-72
2022/09/27 12:46:38;;;;;;;3.25;2.08;;;11.40;92.40;;;;;;5001793;28;20628;-72
2022/09/27 12:49:21;;;;;;;3.05;2.10;;;11.50;92.80;;;;;;4998958;28;20049;-76
2022/09/27 12:51:54;;;;;;;4.50;1.90;;;11.50;92.40;;;;;;5000896;28;20104;-72
2022/09/27 12:54:54;;;;;;;5.55;2.20;;;11.50;92.20;;;;;;5002437;28;20042;-72
2022/09/27 12:57:54;;;;;;;3.45;2.10;;;11.50;92.30;;;;;;5019171;28;20065;-73
2022/09/27 13:00:21;;;;;;;2.90;1.77;;;11.50;92.20;;;;;;4990301;28;20064;-73
2022/09/27 13:03:13;;;;;;;3.55;1.42;;;11.50;91.80;;;;;;5008589;28;20025;-74
2022/09/27 13:05:59;;;;;;;2.45;1.10;;;11.50;92.10;;;;;;5008867;28;20097;-71
2022/09/27 13:08:42;;;;;;;2.60;0.80;;;11.50;92.40;;;;;;5014428;28;20037;-73
2022/09/27 13:11:46;;;;;;;2.17;1.30;;;11.60;92.60;;;;;;4997973;28;20061;-72
2022/09/27 13:14:21;;;;;;;1.30;0.75;;;11.60;92.80;;;;;;5011269;28;20041;-72
2022/09/27 13:16:47;;;;;;;3.60;0.90;;;11.50;92.10;;;;;;5011590;28;20101;-73
2022/09/27 13:19:42;;;;;;;3.45;1.00;;;11.50;92.20;;;;;;5009625;28;20084;-73
2022/09/27 13:22:37;;;;;;;3.80;1.40;;;11.50;92.60;;;;;;5000271;28;20037;-73